createdAt,value
2016-06-13T00:00:06.793Z,1001.99
2016-06-13T00:01:06.829Z,1002.01
2016-06-13T00:02:06.847Z,1001.95
2016-06-13T00:03:06.880Z,1001.94
2016-06-13T00:04:06.899Z,1001.91
2016-06-13T00:05:06.934Z,1001.97
2016-06-13T00:06:06.953Z,1001.91
2016-06-13T00:07:06.987Z,1001.89
2016-06-13T00:08:07.005Z,1001.88
2016-06-13T00:09:07.040Z,1001.92
2016-06-13T00:10:07.059Z,1001.87
2016-06-13T00:11:07.343Z,1001.86
2016-06-13T00:12:07.112Z,1001.84
2016-06-13T00:13:07.147Z,1001.84
2016-06-13T00:14:07.164Z,1001.84
2016-06-13T00:15:07.199Z,1001.84
2016-06-13T00:16:07.233Z,1001.82
2016-06-13T00:17:07.253Z,1001.82
2016-06-13T00:18:07.365Z,1001.8
2016-06-13T00:19:07.304Z,1001.78
2016-06-13T00:20:07.324Z,1001.77
2016-06-13T00:21:07.358Z,1001.77
2016-06-13T00:22:07.377Z,1001.77
2016-06-13T00:23:07.411Z,1001.73
2016-06-13T00:24:07.431Z,1001.78
2016-06-13T00:25:07.448Z,1001.75
2016-06-13T00:26:07.483Z,1001.74
2016-06-13T00:27:07.517Z,1001.72
2016-06-13T00:28:07.536Z,1001.7
2016-06-13T00:29:07.555Z,1001.71
2016-06-13T00:30:07.588Z,1001.66
2016-06-13T00:31:07.607Z,1001.65
2016-06-13T00:32:07.642Z,1001.63
2016-06-13T00:33:07.661Z,1001.64
2016-06-13T00:34:07.695Z,1001.62
2016-06-13T00:35:07.714Z,1001.57
2016-06-13T00:36:07.748Z,1001.61
2016-06-13T00:37:07.798Z,1001.56
2016-06-13T00:38:07.801Z,1001.53
2016-06-13T00:39:07.835Z,1001.53
2016-06-13T00:40:07.855Z,1001.54
2016-06-13T00:41:07.872Z,1001.53
2016-06-13T00:42:07.907Z,1001.56
2016-06-13T00:43:07.926Z,1001.54
2016-06-13T00:44:07.961Z,1001.54
2016-06-13T00:45:07.978Z,1001.51
2016-06-13T00:46:08.013Z,1001.46
2016-06-13T00:47:08.031Z,1001.46
2016-06-13T00:48:08.066Z,1001.42
2016-06-13T00:49:08.085Z,1001.42
2016-06-13T00:50:08.119Z,1001.41
2016-06-13T00:51:08.138Z,1001.42
2016-06-13T00:52:08.172Z,1001.41
2016-06-13T00:53:08.191Z,1001.4
2016-06-13T00:54:08.226Z,1001.41
2016-06-13T00:55:08.244Z,1001.4
2016-06-13T00:56:08.279Z,1001.39
2016-06-13T00:57:08.297Z,1001.38
2016-06-13T00:58:08.332Z,1001.32
2016-06-13T00:59:08.350Z,1001.39
2016-06-13T01:00:08.385Z,1001.35
2016-06-13T01:01:08.403Z,1001.35
2016-06-13T01:02:08.437Z,1001.33
2016-06-13T01:03:08.456Z,1001.34
2016-06-13T01:04:08.490Z,1001.35
2016-06-13T01:05:08.510Z,1001.31
2016-06-13T01:06:08.543Z,1001.33
2016-06-13T01:07:08.562Z,1001.34
2016-06-13T01:08:08.597Z,1001.32
2016-06-13T01:09:08.615Z,1001.33
2016-06-13T01:10:08.633Z,1001.28
2016-06-13T01:11:08.699Z,1001.31
2016-06-13T01:12:08.687Z,1001.3
2016-06-13T01:13:08.721Z,1001.27
2016-06-13T01:14:08.739Z,1001.26
2016-06-13T01:15:08.774Z,1001.24
2016-06-13T01:16:08.793Z,1001.25
2016-06-13T01:17:08.827Z,1001.25
2016-06-13T01:18:08.861Z,1001.22
2016-06-13T01:19:08.880Z,1001.27
2016-06-13T01:20:08.899Z,1001.22
2016-06-13T01:21:08.933Z,1001.25
2016-06-13T01:22:08.953Z,1001.27
2016-06-13T01:23:08.987Z,1001.26
2016-06-13T01:24:09.004Z,1001.26
2016-06-13T01:25:09.039Z,1001.27
2016-06-13T01:26:09.057Z,1001.29
2016-06-13T01:27:09.093Z,1001.29
2016-06-13T01:28:09.127Z,1001.26
2016-06-13T01:29:09.145Z,1001.28
2016-06-13T01:30:09.164Z,1001.26
2016-06-13T01:31:09.198Z,1001.24
2016-06-13T01:32:09.217Z,1001.26
2016-06-13T01:33:09.251Z,1001.24
2016-06-13T01:34:09.271Z,1001.26
2016-06-13T01:35:09.304Z,1001.25
2016-06-13T01:36:09.338Z,1001.29
2016-06-13T01:37:09.342Z,1001.28
2016-06-13T01:38:09.377Z,1001.27
2016-06-13T01:39:09.395Z,1001.27
2016-06-13T01:40:09.428Z,1001.31
2016-06-13T01:41:09.448Z,1001.3
2016-06-13T01:42:09.482Z,1001.24
2016-06-13T01:43:09.501Z,1001.24
2016-06-13T01:44:09.535Z,1001.28
2016-06-13T01:45:09.555Z,1001.24
2016-06-13T01:46:09.588Z,1001.23
2016-06-13T01:47:09.622Z,1001.24
2016-06-13T01:48:09.641Z,1001.21
2016-06-13T01:49:09.660Z,1001.19
2016-06-13T01:50:09.695Z,1001.17
2016-06-13T01:51:09.712Z,1001.19
2016-06-13T01:52:09.747Z,1001.17
2016-06-13T01:53:09.765Z,1001.18
2016-06-13T01:54:09.801Z,1001.16
2016-06-13T01:55:09.818Z,1001.15
2016-06-13T01:56:10.088Z,1001.13
2016-06-13T01:57:09.872Z,1001.11
2016-06-13T01:58:09.906Z,1001.11
2016-06-13T01:59:09.925Z,1001.12
2016-06-13T02:00:09.959Z,1001.09
2016-06-13T02:01:09.979Z,1001.07
2016-06-13T02:02:10.012Z,1001.05
2016-06-13T02:03:10.031Z,1001.02
2016-06-13T02:04:10.066Z,1001.02
2016-06-13T02:05:10.084Z,1001.01
2016-06-13T02:06:10.103Z,1001.02
2016-06-13T02:07:10.137Z,1000.97
2016-06-13T02:08:10.155Z,1001
2016-06-13T02:09:10.190Z,1001
2016-06-13T02:10:10.209Z,1000.98
2016-06-13T02:11:10.243Z,1001
2016-06-13T02:12:10.262Z,1000.96
2016-06-13T02:13:10.296Z,1000.98
2016-06-13T02:14:10.315Z,1001.02
2016-06-13T02:15:10.350Z,1000.95
2016-06-13T02:16:10.368Z,1000.96
2016-06-13T02:17:10.402Z,1000.98
2016-06-13T02:18:10.420Z,1001
2016-06-13T02:19:10.456Z,1001
2016-06-13T02:20:10.474Z,1000.97
2016-06-13T02:21:10.509Z,1000.97
2016-06-13T02:22:10.527Z,1000.94
2016-06-13T02:23:10.561Z,1000.96
2016-06-13T02:24:10.580Z,1000.97
2016-06-13T02:25:10.614Z,1000.94
2016-06-13T02:26:10.649Z,1000.94
2016-06-13T02:27:10.667Z,1000.92
2016-06-13T02:28:10.686Z,1000.93
2016-06-13T02:29:10.705Z,1000.92
2016-06-13T02:30:10.739Z,1000.99
2016-06-13T02:31:10.774Z,1000.92
2016-06-13T02:32:10.793Z,1000.97
2016-06-13T02:33:10.811Z,1000.95
2016-06-13T02:34:10.844Z,1000.9
2016-06-13T02:35:10.864Z,1000.88
2016-06-13T02:36:10.898Z,1000.88
2016-06-13T02:37:10.917Z,1000.91
2016-06-13T02:38:10.951Z,1000.94
2016-06-13T02:39:10.970Z,1000.9
2016-06-13T02:40:11.004Z,1000.88
2016-06-13T02:41:11.023Z,1000.87
2016-06-13T02:42:11.057Z,1000.85
2016-06-13T02:43:11.077Z,1000.9
2016-06-13T02:44:11.111Z,1000.86
2016-06-13T02:45:11.128Z,1000.82
2016-06-13T02:46:11.164Z,1000.79
2016-06-13T02:47:11.182Z,1000.83
2016-06-13T02:48:11.217Z,1000.8
2016-06-13T02:49:11.234Z,1000.82
2016-06-13T02:50:11.253Z,1000.79
2016-06-13T02:51:11.288Z,1000.76
2016-06-13T02:52:11.307Z,1000.77
2016-06-13T02:53:11.341Z,1000.78
2016-06-13T02:54:11.360Z,1000.76
2016-06-13T02:55:11.395Z,1000.8
2016-06-13T02:56:12.037Z,1000.75
2016-06-13T02:57:11.447Z,1000.76
2016-06-13T02:58:11.466Z,1000.75
2016-06-13T02:59:11.501Z,1000.76
2016-06-13T03:00:11.519Z,1000.76
2016-06-13T03:01:11.552Z,1000.78
2016-06-13T03:02:11.572Z,1000.77
2016-06-13T03:03:11.606Z,1000.77
2016-06-13T03:04:11.625Z,1000.71
2016-06-13T03:05:11.659Z,1000.7
2016-06-13T03:06:11.678Z,1000.65
2016-06-13T03:07:11.712Z,1000.64
2016-06-13T03:08:11.732Z,1000.62
2016-06-13T03:09:11.765Z,1000.6
2016-06-13T03:10:11.799Z,1000.63
2016-06-13T03:11:11.819Z,1000.61
2016-06-13T03:12:12.275Z,1000.59
2016-06-13T03:13:11.855Z,1000.61
2016-06-13T03:14:11.890Z,1000.55
2016-06-13T03:15:11.909Z,1000.55
2016-06-13T03:16:11.942Z,1000.5
2016-06-13T03:17:11.962Z,1000.57
2016-06-13T03:18:12.012Z,1000.55
2016-06-13T03:19:12.015Z,1000.53
2016-06-13T03:20:12.049Z,1000.57
2016-06-13T03:21:12.069Z,1000.54
2016-06-13T03:22:12.102Z,1000.57
2016-06-13T03:23:12.120Z,1000.56
2016-06-13T03:24:12.155Z,1000.51
2016-06-13T03:25:12.174Z,1000.54
2016-06-13T03:26:12.208Z,1000.51
2016-06-13T03:27:12.248Z,1000.49
2016-06-13T03:28:12.308Z,1000.47
2016-06-13T03:29:12.382Z,1000.47
2016-06-13T03:30:12.457Z,1000.46
2016-06-13T03:31:12.516Z,1000.41
2016-06-13T03:32:12.577Z,1000.41
2016-06-13T03:33:12.609Z,1000.41
2016-06-13T03:34:12.642Z,1000.44
2016-06-13T03:35:12.691Z,1000.4
2016-06-13T03:36:12.724Z,1000.39
2016-06-13T03:37:12.768Z,1000.36
2016-06-13T03:38:12.791Z,1000.34
2016-06-13T03:39:12.831Z,1000.37
2016-06-13T03:40:12.855Z,1000.36
2016-06-13T03:41:12.895Z,1000.36
2016-06-13T03:42:12.917Z,1000.35
2016-06-13T03:43:12.953Z,1000.3
2016-06-13T03:44:12.974Z,1000.29
2016-06-13T03:45:13.010Z,1000.3
2016-06-13T03:46:13.031Z,1000.29
2016-06-13T03:47:13.067Z,1000.29
2016-06-13T03:48:13.087Z,1000.31
2016-06-13T03:49:13.121Z,1000.3
2016-06-13T03:50:13.140Z,1000.31
2016-06-13T03:51:13.160Z,1000.3
2016-06-13T03:52:13.195Z,1000.29
2016-06-13T03:53:13.213Z,1000.23
2016-06-13T03:54:13.248Z,1000.27
2016-06-13T03:55:13.281Z,1000.24
2016-06-13T03:56:13.301Z,1000.26
2016-06-13T03:57:13.320Z,1000.24
2016-06-13T03:58:13.385Z,1000.21
2016-06-13T03:59:13.373Z,1000.24
2016-06-13T04:00:13.407Z,1000.25
2016-06-13T04:01:13.425Z,1000.25
2016-06-13T04:02:13.460Z,1000.25
2016-06-13T04:03:13.479Z,1000.23
2016-06-13T04:04:13.513Z,1000.22
2016-06-13T04:05:13.532Z,1000.21
2016-06-13T04:06:13.565Z,1000.19
2016-06-13T04:07:13.601Z,1000.23
2016-06-13T04:08:13.619Z,1000.23
2016-06-13T04:09:13.637Z,1000.2
2016-06-13T04:10:13.672Z,1000.21
2016-06-13T04:11:13.691Z,1000.22
2016-06-13T04:12:13.944Z,1000.23
2016-06-13T04:13:13.744Z,1000.22
2016-06-13T04:14:13.762Z,1000.25
2016-06-13T04:15:13.797Z,1000.19
2016-06-13T04:16:13.832Z,1000.24
2016-06-13T04:17:13.849Z,1000.21
2016-06-13T04:18:13.868Z,1000.25
2016-06-13T04:19:13.903Z,1000.21
2016-06-13T04:20:13.922Z,1000.22
2016-06-13T04:21:13.955Z,1000.23
2016-06-13T04:22:13.974Z,1000.18
2016-06-13T04:23:14.008Z,1000.18
2016-06-13T04:24:14.028Z,1000.19
2016-06-13T04:25:14.062Z,1000.12
2016-06-13T04:26:14.095Z,1000.14
2016-06-13T04:27:14.115Z,1000.13
2016-06-13T04:28:14.133Z,1000.15
2016-06-13T04:29:14.168Z,1000.09
2016-06-13T04:30:14.186Z,1000.13
2016-06-13T04:31:14.206Z,1000.07
2016-06-13T04:32:14.239Z,1000.06
2016-06-13T04:33:14.258Z,1000.07
2016-06-13T04:34:14.292Z,1000.06
2016-06-13T04:35:14.311Z,1000.04
2016-06-13T04:36:14.346Z,1000.08
2016-06-13T04:37:14.364Z,1000.04
2016-06-13T04:38:14.399Z,1000.05
2016-06-13T04:39:14.417Z,1000.05
2016-06-13T04:40:14.452Z,1000.05
2016-06-13T04:41:14.470Z,1000.09
2016-06-13T04:42:14.505Z,1000.05
2016-06-13T04:43:14.523Z,1000.03
2016-06-13T04:44:14.558Z,1000.02
2016-06-13T04:45:14.576Z,1000.02
2016-06-13T04:46:14.595Z,999.99
2016-06-13T04:47:14.630Z,1000.01
2016-06-13T04:48:14.663Z,1000.03
2016-06-13T04:49:14.682Z,999.99
2016-06-13T04:50:14.716Z,999.97
2016-06-13T04:51:14.736Z,999.93
2016-06-13T04:52:14.754Z,999.98
2016-06-13T04:53:14.789Z,999.97
2016-06-13T04:54:14.807Z,999.99
2016-06-13T04:55:14.841Z,999.95
2016-06-13T04:56:14.860Z,999.97
2016-06-13T04:57:14.895Z,999.96
2016-06-13T04:58:14.914Z,999.91
2016-06-13T04:59:14.947Z,999.95
2016-06-13T05:00:14.966Z,999.95
2016-06-13T05:01:15.001Z,999.96
2016-06-13T05:02:15.020Z,999.91
2016-06-13T05:03:15.054Z,999.91
2016-06-13T05:04:15.073Z,999.86
2016-06-13T05:05:15.106Z,999.89
2016-06-13T05:06:15.125Z,999.92
2016-06-13T05:07:15.160Z,999.94
2016-06-13T05:08:15.178Z,999.94
2016-06-13T05:09:15.213Z,999.94
2016-06-13T05:10:15.231Z,999.92
2016-06-13T05:11:15.265Z,999.99
2016-06-13T05:12:15.284Z,999.94
2016-06-13T05:13:15.318Z,999.93
2016-06-13T05:14:15.338Z,999.91
2016-06-13T05:15:15.372Z,999.94
2016-06-13T05:16:15.390Z,999.94
2016-06-13T05:17:15.425Z,999.92
2016-06-13T05:18:15.444Z,999.9
2016-06-13T05:19:15.478Z,999.93
2016-06-13T05:20:15.497Z,999.89
2016-06-13T05:21:15.531Z,999.9
2016-06-13T05:22:15.549Z,999.92
2016-06-13T05:23:15.584Z,999.88
2016-06-13T05:24:15.602Z,999.87
2016-06-13T05:25:15.637Z,999.91
2016-06-13T05:26:15.656Z,999.9
2016-06-13T05:27:15.675Z,999.88
2016-06-13T05:28:15.708Z,999.92
2016-06-13T05:29:15.742Z,999.9
2016-06-13T05:30:15.762Z,999.91
2016-06-13T05:31:15.781Z,999.98
2016-06-13T05:32:15.815Z,999.94
2016-06-13T05:33:15.833Z,999.94
2016-06-13T05:34:15.868Z,999.93
2016-06-13T05:35:15.886Z,999.95
2016-06-13T05:36:15.921Z,999.96
2016-06-13T05:37:15.939Z,999.97
2016-06-13T05:38:15.973Z,999.92
2016-06-13T05:39:16.008Z,999.98
2016-06-13T05:40:16.026Z,999.94
2016-06-13T05:41:16.045Z,999.95
2016-06-13T05:42:16.690Z,999.95
2016-06-13T05:43:16.114Z,999.92
2016-06-13T05:44:16.133Z,999.95
2016-06-13T05:45:16.152Z,999.98
2016-06-13T05:46:16.186Z,999.94
2016-06-13T05:47:16.205Z,999.98
2016-06-13T05:48:16.239Z,999.97
2016-06-13T05:49:16.257Z,999.98
2016-06-13T05:50:16.292Z,1000.02
2016-06-13T05:51:16.310Z,999.97
2016-06-13T05:52:16.345Z,999.98
2016-06-13T05:53:16.363Z,999.97
2016-06-13T05:54:16.398Z,999.91
2016-06-13T05:55:16.417Z,1000
2016-06-13T05:56:16.450Z,999.95
2016-06-13T05:57:17.048Z,999.98
2016-06-13T05:58:16.504Z,999.97
2016-06-13T05:59:16.523Z,999.94
2016-06-13T06:00:16.557Z,999.94
2016-06-13T06:01:16.575Z,999.97
2016-06-13T06:02:16.610Z,999.92
2016-06-13T06:03:16.629Z,999.98
2016-06-13T06:04:16.663Z,1000.01
2016-06-13T06:05:16.681Z,999.96
2016-06-13T06:06:16.717Z,1000.02
2016-06-13T06:07:16.734Z,1000.02
2016-06-13T06:08:16.769Z,1000.06
2016-06-13T06:09:16.787Z,1000.03
2016-06-13T06:10:16.822Z,1000.07
2016-06-13T06:11:16.841Z,1000.03
2016-06-13T06:12:16.906Z,1000.06
2016-06-13T06:13:16.894Z,1000.06
2016-06-13T06:14:16.928Z,1000.09
2016-06-13T06:15:16.947Z,1000.07
2016-06-13T06:16:16.981Z,1000.09
2016-06-13T06:17:17.000Z,1000.06
2016-06-13T06:18:17.034Z,1000.1
2016-06-13T06:19:17.053Z,1000.07
2016-06-13T06:20:17.087Z,1000.03
2016-06-13T06:21:17.105Z,1000.04
2016-06-13T06:22:17.140Z,1000.04
2016-06-13T06:23:17.159Z,1000.04
2016-06-13T06:24:17.194Z,1000.06
2016-06-13T06:25:17.211Z,1000.03
2016-06-13T06:26:17.246Z,1000.01
2016-06-13T06:27:17.921Z,1000.03
2016-06-13T06:28:17.299Z,1000.01
2016-06-13T06:29:17.318Z,1000.05
2016-06-13T06:30:17.352Z,1000.05
2016-06-13T06:31:17.371Z,1000.02
2016-06-13T06:32:17.405Z,1000.01
2016-06-13T06:33:17.424Z,1000
2016-06-13T06:34:17.459Z,1000.01
2016-06-13T06:35:17.478Z,1000.01
2016-06-13T06:36:17.527Z,1000.05
2016-06-13T06:37:17.529Z,1000.02
2016-06-13T06:38:17.564Z,1000.04
2016-06-13T06:39:17.583Z,1000.08
2016-06-13T06:40:17.618Z,1000.05
2016-06-13T06:41:17.636Z,1000.08
2016-06-13T06:42:17.670Z,1000.08
2016-06-13T06:43:17.689Z,1000.09
2016-06-13T06:44:17.723Z,1000.07
2016-06-13T06:45:17.742Z,1000.09
2016-06-13T06:46:17.776Z,1000.1
2016-06-13T06:47:17.796Z,1000.09
2016-06-13T06:48:17.829Z,1000.11
2016-06-13T06:49:17.849Z,1000.08
2016-06-13T06:50:17.882Z,1000.08
2016-06-13T06:51:17.902Z,1000.13
2016-06-13T06:52:17.936Z,1000.12
2016-06-13T06:53:17.954Z,1000.14
2016-06-13T06:54:17.989Z,1000.1
2016-06-13T06:55:18.006Z,1000.05
2016-06-13T06:56:18.042Z,1000.05
2016-06-13T06:57:18.060Z,999.99
2016-06-13T06:58:18.094Z,1000.01
2016-06-13T06:59:18.113Z,1000.07
2016-06-13T07:00:18.147Z,1000.06
2016-06-13T07:01:18.167Z,1000.07
2016-06-13T07:02:18.200Z,1000.07
2016-06-13T07:03:18.219Z,1000.08
2016-06-13T07:04:18.254Z,1000.13
2016-06-13T07:05:18.273Z,1000.12
2016-06-13T07:06:18.307Z,1000.16
2016-06-13T07:07:18.326Z,1000.13
2016-06-13T07:08:18.360Z,1000.08
2016-06-13T07:09:18.378Z,1000.08
2016-06-13T07:10:18.428Z,1000.08
2016-06-13T07:11:18.431Z,1000.07
2016-06-13T07:12:18.466Z,1000.04
2016-06-13T07:13:18.484Z,1000.05
2016-06-13T07:14:18.519Z,1000.02
2016-06-13T07:15:18.537Z,999.98
2016-06-13T07:16:18.572Z,999.97
2016-06-13T07:17:18.591Z,999.97
2016-06-13T07:18:18.625Z,999.99
2016-06-13T07:19:18.644Z,999.96
2016-06-13T07:20:18.677Z,999.97
2016-06-13T07:21:18.697Z,999.96
2016-06-13T07:22:18.731Z,999.97
2016-06-13T07:23:18.750Z,999.95
2016-06-13T07:24:18.784Z,999.93
2016-06-13T07:25:18.803Z,999.94
2016-06-13T07:26:18.837Z,999.92
2016-06-13T07:27:19.230Z,999.91
2016-06-13T07:28:18.875Z,999.89
2016-06-13T07:29:18.909Z,999.85
2016-06-13T07:30:18.942Z,999.8
2016-06-13T07:31:18.961Z,999.78
2016-06-13T07:32:18.980Z,999.8
2016-06-13T07:33:19.015Z,999.83
2016-06-13T07:34:19.033Z,999.84
2016-06-13T07:35:19.068Z,999.86
2016-06-13T07:36:19.086Z,999.85
2016-06-13T07:37:19.121Z,999.84
2016-06-13T07:38:19.139Z,999.91
2016-06-13T07:39:19.174Z,999.86
2016-06-13T07:40:19.192Z,999.88
2016-06-13T07:41:19.227Z,999.85
2016-06-13T07:42:19.245Z,999.83
2016-06-13T07:43:19.280Z,999.84
2016-06-13T07:44:19.299Z,999.86
2016-06-13T07:45:19.332Z,999.81
2016-06-13T07:46:19.351Z,999.84
2016-06-13T07:47:19.386Z,999.85
2016-06-13T07:48:19.405Z,999.79
2016-06-13T07:49:19.439Z,999.77
2016-06-13T07:50:19.458Z,999.76
2016-06-13T07:51:19.492Z,999.78
2016-06-13T07:52:19.510Z,999.76
2016-06-13T07:53:19.546Z,999.79
2016-06-13T07:54:19.563Z,999.78
2016-06-13T07:55:19.598Z,999.77
2016-06-13T07:56:19.617Z,999.77
2016-06-13T07:57:19.651Z,999.79
2016-06-13T07:58:19.669Z,999.78
2016-06-13T07:59:19.704Z,999.78
2016-06-13T08:00:19.723Z,999.77
2016-06-13T08:01:19.757Z,999.76
2016-06-13T08:02:19.776Z,999.74
2016-06-13T08:03:19.810Z,999.67
2016-06-13T08:04:19.829Z,999.68
2016-06-13T08:05:19.863Z,999.69
2016-06-13T08:06:19.882Z,999.63
2016-06-13T08:07:19.916Z,999.66
2016-06-13T08:08:19.934Z,999.65
2016-06-13T08:09:19.970Z,999.7
2016-06-13T08:10:19.987Z,999.71
2016-06-13T08:11:20.022Z,999.73
2016-06-13T08:12:20.041Z,999.71
2016-06-13T08:13:20.075Z,999.7
2016-06-13T08:14:20.093Z,999.69
2016-06-13T08:15:20.128Z,999.67
2016-06-13T08:16:20.146Z,999.7
2016-06-13T08:17:20.181Z,999.68
2016-06-13T08:18:20.200Z,999.69
2016-06-13T08:19:20.234Z,999.7
2016-06-13T08:20:20.253Z,999.68
2016-06-13T08:21:20.288Z,999.64
2016-06-13T08:22:20.306Z,999.69
2016-06-13T08:23:20.341Z,999.65
2016-06-13T08:24:20.358Z,999.64
2016-06-13T08:25:20.393Z,999.63
2016-06-13T08:26:20.428Z,999.61
2016-06-13T08:27:21.056Z,999.65
2016-06-13T08:28:20.808Z,999.66
2016-06-13T08:29:20.515Z,999.65
2016-06-13T08:30:20.534Z,999.66
2016-06-13T08:31:20.552Z,999.63
2016-06-13T08:32:20.587Z,999.62
2016-06-13T08:33:20.621Z,999.65
2016-06-13T08:34:20.639Z,999.64
2016-06-13T08:35:20.674Z,999.66
2016-06-13T08:36:20.693Z,999.63
2016-06-13T08:37:20.728Z,999.64
2016-06-13T08:38:20.746Z,999.6
2016-06-13T08:39:20.779Z,999.62
2016-06-13T08:40:20.799Z,999.65
2016-06-13T08:41:20.833Z,999.64
2016-06-13T08:42:20.867Z,999.63
2016-06-13T08:43:20.886Z,999.66
2016-06-13T08:44:20.920Z,999.66
2016-06-13T08:45:20.955Z,999.66
2016-06-13T08:46:20.973Z,999.72
2016-06-13T08:47:20.992Z,999.7
2016-06-13T08:48:21.026Z,999.67
2016-06-13T08:49:21.061Z,999.67
2016-06-13T08:50:21.079Z,999.67
2016-06-13T08:51:21.113Z,999.63
2016-06-13T08:52:21.133Z,999.61
2016-06-13T08:53:21.167Z,999.63
2016-06-13T08:54:21.200Z,999.62
2016-06-13T08:55:21.220Z,999.6
2016-06-13T08:56:21.254Z,999.56
2016-06-13T08:57:21.273Z,999.55
2016-06-13T08:58:21.510Z,999.57
2016-06-13T08:59:21.326Z,999.57
2016-06-13T09:00:21.360Z,999.55
2016-06-13T09:01:21.395Z,999.54
2016-06-13T09:02:21.413Z,999.55
2016-06-13T09:03:21.447Z,999.51
2016-06-13T09:04:21.466Z,999.55
2016-06-13T09:05:21.501Z,999.53
2016-06-13T09:06:21.519Z,999.53
2016-06-13T09:07:21.554Z,999.53
2016-06-13T09:08:21.588Z,999.52
2016-06-13T09:09:21.607Z,999.54
2016-06-13T09:10:21.641Z,999.51
2016-06-13T09:11:21.674Z,999.52
2016-06-13T09:12:21.694Z,999.54
2016-06-13T09:13:22.072Z,999.55
2016-06-13T09:14:21.747Z,999.55
2016-06-13T09:15:21.781Z,999.53
2016-06-13T09:16:21.816Z,999.55
2016-06-13T09:17:21.834Z,999.51
2016-06-13T09:18:21.868Z,999.56
2016-06-13T09:19:21.903Z,999.52
2016-06-13T09:20:21.922Z,999.54
2016-06-13T09:21:21.955Z,999.55
2016-06-13T09:22:21.975Z,999.5
2016-06-13T09:23:22.009Z,999.54
2016-06-13T09:24:22.027Z,999.53
2016-06-13T09:25:22.062Z,999.53
2016-06-13T09:26:22.096Z,999.59
2016-06-13T09:27:22.115Z,999.54
2016-06-13T09:28:22.227Z,999.49
2016-06-13T09:29:22.184Z,999.55
2016-06-13T09:30:22.202Z,999.55
2016-06-13T09:31:22.236Z,999.49
2016-06-13T09:32:22.256Z,999.49
2016-06-13T09:33:22.290Z,999.42
2016-06-13T09:34:22.324Z,999.42
2016-06-13T09:35:22.343Z,999.4
2016-06-13T09:36:22.376Z,999.34
2016-06-13T09:37:22.412Z,999.38
2016-06-13T09:38:22.430Z,999.27
2016-06-13T09:39:22.464Z,999.27
2016-06-13T09:40:22.483Z,999.27
2016-06-13T09:41:22.517Z,999.29
2016-06-13T09:42:22.552Z,999.28
2016-06-13T09:43:22.571Z,999.28
2016-06-13T09:44:22.605Z,999.28
2016-06-13T09:45:22.623Z,999.28
2016-06-13T09:46:22.657Z,999.26
2016-06-13T09:47:22.693Z,999.26
2016-06-13T09:48:22.711Z,999.26
2016-06-13T09:49:22.744Z,999.26
2016-06-13T09:50:22.780Z,999.23
2016-06-13T09:51:22.798Z,999.19
2016-06-13T09:52:22.833Z,999.19
2016-06-13T09:53:22.867Z,999.17
2016-06-13T09:54:22.885Z,999.16
2016-06-13T09:55:22.921Z,999.12
2016-06-13T09:56:22.938Z,999.12
2016-06-13T09:57:22.973Z,999.12
2016-06-13T09:58:23.008Z,999.12
2016-06-13T09:59:23.025Z,999.13
2016-06-13T10:00:23.060Z,999.11
2016-06-13T10:01:23.094Z,999.07
2016-06-13T10:02:23.114Z,999.1
2016-06-13T10:03:23.148Z,999.12
2016-06-13T10:04:23.181Z,999.05
2016-06-13T10:05:23.201Z,999.06
2016-06-13T10:06:23.235Z,999.03
2016-06-13T10:07:23.269Z,999.05
2016-06-13T10:08:23.288Z,999.06
2016-06-13T10:09:23.323Z,999.03
2016-06-13T10:10:23.341Z,999.05
2016-06-13T10:11:23.375Z,999.07
2016-06-13T10:12:23.426Z,999.08
2016-06-13T10:13:23.429Z,999.08
2016-06-13T10:14:23.462Z,999.13
2016-06-13T10:15:23.496Z,999.1
2016-06-13T10:16:23.516Z,999.09
2016-06-13T10:17:23.550Z,999.06
2016-06-13T10:18:23.569Z,999.09
2016-06-13T10:19:23.602Z,999.03
2016-06-13T10:20:23.637Z,998.97
2016-06-13T10:21:23.656Z,998.95
2016-06-13T10:22:23.690Z,998.93
2016-06-13T10:23:23.724Z,998.9
2016-06-13T10:24:23.744Z,998.91
2016-06-13T10:25:23.777Z,998.89
2016-06-13T10:26:23.812Z,998.85
2016-06-13T10:27:23.830Z,998.83
2016-06-13T10:28:23.865Z,998.85
2016-06-13T10:29:23.900Z,998.8
2016-06-13T10:30:23.917Z,998.8
2016-06-13T10:31:23.953Z,998.82
2016-06-13T10:32:23.971Z,998.78
2016-06-13T10:33:24.005Z,998.83
2016-06-13T10:34:24.040Z,998.84
2016-06-13T10:35:24.059Z,998.84
2016-06-13T10:36:24.093Z,998.82
2016-06-13T10:37:24.111Z,998.82
2016-06-13T10:38:24.145Z,998.8
2016-06-13T10:39:24.180Z,998.8
2016-06-13T10:40:24.198Z,998.82
2016-06-13T10:41:24.234Z,998.75
2016-06-13T10:42:24.268Z,998.79
2016-06-13T10:43:24.286Z,998.77
2016-06-13T10:44:24.320Z,998.78
2016-06-13T10:45:24.371Z,998.79
2016-06-13T10:46:24.374Z,998.72
2016-06-13T10:47:24.408Z,998.74
2016-06-13T10:48:24.426Z,998.76
2016-06-13T10:49:24.461Z,998.74
2016-06-13T10:50:24.495Z,998.76
2016-06-13T10:51:24.514Z,998.76
2016-06-13T10:52:24.548Z,998.75
2016-06-13T10:53:24.582Z,998.75
2016-06-13T10:54:24.601Z,998.73
2016-06-13T10:55:24.636Z,998.78
2016-06-13T10:56:24.670Z,998.72
2016-06-13T10:57:24.689Z,998.77
2016-06-13T10:58:24.723Z,998.74
2016-06-13T10:59:24.742Z,998.75
2016-06-13T11:00:24.776Z,998.7
2016-06-13T11:01:24.810Z,998.73
2016-06-13T11:02:24.844Z,998.73
2016-06-13T11:03:24.863Z,998.7
2016-06-13T11:04:24.897Z,998.71
2016-06-13T11:05:24.916Z,998.67
2016-06-13T11:06:24.951Z,998.68
2016-06-13T11:07:24.985Z,998.64
2016-06-13T11:08:25.004Z,998.6
2016-06-13T11:09:25.038Z,998.59
2016-06-13T11:10:25.057Z,998.59
2016-06-13T11:11:25.091Z,998.6
2016-06-13T11:12:25.125Z,998.6
2016-06-13T11:13:25.832Z,998.53
2016-06-13T11:14:25.178Z,998.54
2016-06-13T11:15:25.213Z,998.51
2016-06-13T11:16:25.231Z,998.51
2016-06-13T11:17:25.265Z,998.5
2016-06-13T11:18:25.300Z,998.52
2016-06-13T11:19:25.318Z,998.48
2016-06-13T11:20:25.354Z,998.42
2016-06-13T11:21:25.388Z,998.41
2016-06-13T11:22:25.406Z,998.42
2016-06-13T11:23:25.440Z,998.42
2016-06-13T11:24:25.475Z,998.37
2016-06-13T11:25:25.494Z,998.39
2016-06-13T11:26:25.528Z,998.4
2016-06-13T11:27:25.562Z,998.34
2016-06-13T11:28:25.893Z,998.23
2016-06-13T11:29:25.615Z,998.29
2016-06-13T11:30:25.649Z,998.26
2016-06-13T11:31:25.668Z,998.25
2016-06-13T11:32:25.702Z,998.27
2016-06-13T11:33:25.721Z,998.2
2016-06-13T11:34:25.756Z,998.23
2016-06-13T11:35:25.790Z,998.21
2016-06-13T11:36:25.809Z,998.16
2016-06-13T11:37:25.843Z,998.2
2016-06-13T11:38:25.877Z,998.23
2016-06-13T11:39:25.896Z,998.18
2016-06-13T11:40:25.930Z,998.2
2016-06-13T11:41:25.949Z,998.14
2016-06-13T11:42:25.983Z,998.13
2016-06-13T11:43:26.017Z,998.2
2016-06-13T11:44:26.037Z,998.21
2016-06-13T11:45:26.071Z,998.13
2016-06-13T11:46:26.104Z,998.09
2016-06-13T11:47:26.123Z,998.05
2016-06-13T11:48:26.157Z,998.05
2016-06-13T11:49:26.192Z,998.09
2016-06-13T11:50:26.210Z,998.11
2016-06-13T11:51:26.245Z,998.08
2016-06-13T11:52:26.280Z,998.04
2016-06-13T11:53:26.298Z,998.05
2016-06-13T11:54:26.333Z,998.02
2016-06-13T11:55:26.367Z,998.05
2016-06-13T11:56:26.385Z,998.04
2016-06-13T11:57:26.421Z,997.98
2016-06-13T11:58:26.438Z,998
2016-06-13T11:59:26.473Z,998.01
2016-06-13T12:00:26.507Z,997.97
2016-06-13T12:01:26.526Z,998
2016-06-13T12:02:26.561Z,997.93
2016-06-13T12:03:26.594Z,997.95
2016-06-13T12:04:26.614Z,998
2016-06-13T12:05:26.647Z,997.98
2016-06-13T12:06:26.681Z,997.96
2016-06-13T12:07:26.701Z,997.96
2016-06-13T12:08:26.735Z,997.96
2016-06-13T12:09:26.754Z,997.95
2016-06-13T12:10:26.788Z,997.94
2016-06-13T12:11:26.822Z,997.97
2016-06-13T12:12:26.841Z,998.02
2016-06-13T12:13:26.875Z,997.97
2016-06-13T12:14:26.909Z,997.99
2016-06-13T12:15:26.929Z,998.03
2016-06-13T12:16:26.962Z,998.08
2016-06-13T12:17:26.996Z,998.01
2016-06-13T12:18:27.016Z,997.98
2016-06-13T12:19:27.050Z,997.98